Anshun, Guizhou

12:55 AM CST on January 28, 2015 (GMT +0800)
Guiyang | Change Station
CLOSE
Current Station
Airport
Location: Guiyang,
Elevation: 3734 ft
Nearby Weather Stations

Elev 3734 ft 26.54 °N, 106.80 °E | Updated 55 minutes ago

Overcast
Overcast
45 °F
Feels Like 40 °F
N
9
Wind Variable Wind from North

Today
High -- | Low -- °F
--% Chance of Precip.
Yesterday
High -- | Low -- °F
Precip. -- in
7:42 AM 6:35 PM
First Quarter, 55% visible
Pressure 29.92 in
Visibility 6.2 miles
Clouds Mostly Cloudy 1800 ft
Overcast 3300 ft
Windchill 40 °F
Dew Point 41 °F
Humidity 87%
Rainfall 0.00 in
Snow Depth Not available.
UV 0 out of 12
Pollen Not available.
Air Quality Not available.
Flu Activity Not available.
METAR ZUGY 271600Z 01004MPS 9999 BKN018 OVC033 07/05 Q1013 NOSIG

More Conditions Fewer Conditions

Pressure 29.92 in
Visibility 6.2 miles
Clouds Mostly Cloudy 1800 ft
Overcast 3300 ft
Windchill 40 °F
Dew Point 41 °F
Humidity 87%
Rainfall 0.00 in
Snow Depth Not available.
UV 0 out of 12
Pollen Not available.
Air Quality Not available.
Flu Activity Not available.
METAR ZUGY 271600Z 01004MPS 9999 BKN018 OVC033 07/05 Q1013 NOSIG

More Conditions Fewer Conditions

10-Day Weather Forecast

Almanac

Astronomy

Jan. 28, 2015 Rise Set
Actual Time
Civil Twilight
Nautical Twilight
Astronomical Twilight
Moon
Length of Visible Light
Length of Day
Tomorrow will be .
, % of the Moon is Illuminated

Today's Extremes

Country Highs Country Lows

Community

WunderPhotos

Upload Photos

1,790,725 photos uploaded!

WunderBlogs® & News

Nearby

Air Quality

  Air Quality AQ Index Pollutant
Not available.

Snow Depth

Station Depth Elevation

Earthquake Activity

City Distance Mag. Time & Date
Minimum magnitude displayed is 2.5.

Coastal Water Temperatures

Place Temperature

Nearby Weather Stations